createdAt,value
2023-12-05T00:03:01.913Z,7.17
2023-12-05T00:06:05.654Z,6.80
2023-12-05T00:09:12.631Z,6.93
2023-12-05T00:12:15.786Z,7.30
2023-12-05T00:15:19.242Z,7.82
2023-12-05T00:18:24.909Z,7.23
2023-12-05T00:21:28.378Z,6.70
2023-12-05T00:24:35.363Z,7.45
2023-12-05T00:27:38.607Z,6.40
2023-12-05T00:30:41.761Z,7.53
2023-12-05T00:33:45.182Z,6.83
2023-12-05T00:36:49.280Z,7.55
2023-12-05T00:39:54.223Z,7.05
2023-12-05T00:42:57.448Z,7.18
2023-12-05T00:46:00.726Z,7.55
2023-12-05T00:49:06.193Z,7.13
2023-12-05T00:52:09.494Z,6.90
2023-12-05T00:55:13.997Z,6.80
2023-12-05T00:58:17.168Z,7.25
2023-12-05T01:01:21.017Z,7.93
2023-12-05T01:04:24.609Z,6.73
2023-12-05T01:07:31.136Z,7.72
2023-12-05T01:10:35.981Z,6.82
2023-12-05T01:13:39.722Z,6.90
2023-12-05T01:16:44.906Z,7.07
2023-12-05T01:19:48.050Z,7.27
2023-12-05T01:22:51.502Z,6.85
2023-12-05T01:25:56.244Z,6.82
2023-12-05T01:28:59.412Z,6.72
2023-12-05T01:32:02.507Z,6.65
2023-12-05T01:35:06.251Z,7.10
2023-12-05T01:38:09.513Z,7.50
2023-12-05T01:41:14.134Z,7.10
2023-12-05T01:44:17.281Z,6.78
2023-12-05T01:47:20.724Z,7.30
2023-12-05T01:50:27.784Z,7.73
2023-12-05T01:53:33.072Z,7.57
2023-12-05T01:56:37.820Z,7.93
2023-12-05T01:59:41.444Z,6.95
2023-12-05T02:02:44.650Z,7.82
2023-12-05T02:05:49.602Z,7.77
2023-12-05T02:08:53.885Z,8.10
2023-12-05T02:11:58.412Z,8.52
2023-12-05T02:15:02.155Z,7.82
2023-12-05T02:18:15.407Z,8.07
2023-12-05T02:21:25.887Z,7.40
2023-12-05T02:24:43.777Z,7.20
2023-12-05T02:27:49.331Z,8.45
2023-12-05T02:30:53.020Z,8.05
2023-12-05T02:33:56.640Z,7.38
2023-12-05T02:37:08.141Z,8.03
2023-12-05T02:40:17.670Z,7.82
2023-12-05T02:43:30.472Z,7.85
2023-12-05T02:46:35.463Z,8.18
2023-12-05T02:49:38.865Z,7.80
2023-12-05T02:52:42.116Z,7.13
2023-12-05T02:55:45.353Z,7.60
2023-12-05T02:58:50.033Z,7.25
2023-12-05T03:01:53.239Z,7.72
2023-12-05T03:04:56.470Z,7.55
2023-12-05T03:08:01.190Z,8.37
2023-12-05T03:11:09.545Z,8.05
2023-12-05T03:14:15.699Z,7.72
2023-12-05T03:17:18.864Z,8.32
2023-12-05T03:20:22.338Z,8.00
2023-12-05T03:23:25.590Z,7.23
2023-12-05T03:26:28.897Z,7.82
2023-12-05T03:29:33.400Z,8.70
2023-12-05T03:32:36.723Z,7.95
2023-12-05T03:35:39.897Z,8.05
2023-12-05T03:38:43.204Z,8.17
2023-12-05T03:41:47.424Z,8.45
2023-12-05T03:44:52.052Z,8.00
2023-12-05T03:47:55.409Z,8.95
2023-12-05T03:50:58.700Z,8.45
2023-12-05T03:54:04.897Z,8.07
2023-12-05T03:57:08.051Z,7.20
2023-12-05T04:00:16.346Z,9.35
2023-12-05T04:03:22.391Z,8.63
2023-12-05T04:06:26.723Z,9.00
2023-12-05T04:09:30.109Z,8.70
2023-12-05T04:12:33.297Z,7.75
2023-12-05T04:15:38.043Z,8.80
2023-12-05T04:18:41.770Z,8.20
2023-12-05T04:21:45.012Z,8.35
2023-12-05T04:24:48.189Z,8.27
2023-12-05T04:27:51.497Z,8.90
2023-12-05T04:30:56.061Z,9.52
2023-12-05T04:33:59.408Z,7.68
2023-12-05T04:37:03.238Z,8.88
2023-12-05T04:40:09.118Z,8.77
2023-12-05T04:43:12.284Z,8.60
2023-12-05T04:46:16.786Z,8.73
2023-12-05T04:49:20.356Z,8.60
2023-12-05T04:52:23.629Z,7.53
2023-12-05T04:55:27.084Z,8.77
2023-12-05T04:58:30.555Z,8.50
2023-12-05T05:01:35.149Z,9.05
2023-12-05T05:04:38.572Z,8.55
2023-12-05T05:07:42.072Z,8.38
2023-12-05T05:10:45.350Z,8.00
2023-12-05T05:13:53.171Z,8.65
2023-12-05T05:17:02.697Z,8.75
2023-12-05T05:20:07.210Z,8.05
2023-12-05T05:23:13.008Z,8.93
2023-12-05T05:26:16.333Z,7.83
2023-12-05T05:29:19.673Z,8.48
2023-12-05T05:32:25.047Z,8.90
2023-12-05T05:35:31.243Z,8.07
2023-12-05T05:38:37.441Z,8.07
2023-12-05T05:41:46.635Z,8.63
2023-12-05T05:44:50.076Z,9.07
2023-12-05T05:47:55.055Z,9.18
2023-12-05T05:50:58.620Z,8.85
2023-12-05T05:54:02.131Z,8.60
2023-12-05T05:57:05.942Z,8.60
2023-12-05T06:00:13.184Z,9.13
2023-12-05T06:03:24.407Z,8.55
2023-12-05T06:06:27.727Z,8.45
2023-12-05T06:09:31.255Z,8.02
2023-12-05T06:12:34.602Z,7.70
2023-12-05T06:16:31.407Z,7.63
2023-12-05T06:19:37.987Z,8.60
2023-12-05T06:26:35.826Z,8.70
2023-12-05T06:29:55.121Z,9.03
2023-12-05T06:33:46.568Z,8.55
2023-12-05T06:49:44.804Z,8.03
2023-12-05T07:02:30.320Z,8.43
2023-12-05T07:06:10.868Z,10.00
2023-12-05T07:09:34.359Z,8.40
2023-12-05T07:12:41.152Z,8.68
2023-12-05T07:15:47.276Z,8.77
2023-12-05T07:28:06.123Z,8.80
2023-12-05T07:31:10.131Z,8.55
2023-12-05T07:34:18.577Z,9.13
2023-12-05T07:37:24.137Z,9.05
2023-12-05T07:40:36.693Z,8.93
2023-12-05T07:43:39.882Z,8.77
2023-12-05T07:46:46.634Z,9.05
2023-12-05T07:49:52.215Z,9.10
2023-12-05T07:52:55.554Z,9.27
2023-12-05T07:56:04.906Z,10.02
2023-12-05T07:59:08.603Z,9.87
2023-12-05T08:02:12.134Z,8.48
2023-12-05T08:05:21.665Z,9.82
2023-12-05T08:09:03.043Z,9.27
2023-12-05T08:12:13.312Z,9.75
2023-12-05T08:15:17.874Z,9.60
2023-12-05T08:24:19.304Z,9.80
2023-12-05T08:28:31.070Z,9.48
2023-12-05T08:32:29.458Z,9.73
2023-12-05T08:35:56.404Z,9.47
2023-12-05T08:43:47.608Z,9.60
2023-12-05T08:47:54.526Z,9.10
2023-12-05T08:52:05.073Z,9.38
2023-12-05T09:08:07.937Z,9.70
2023-12-05T09:11:32.554Z,9.80
2023-12-05T09:14:37.604Z,9.60
2023-12-05T09:17:41.881Z,9.77
2023-12-05T09:21:13.476Z,9.60
2023-12-05T09:28:08.614Z,9.98
2023-12-05T09:31:15.730Z,9.63
2023-12-05T09:34:20.783Z,9.30
2023-12-05T09:43:30.069Z,8.52
2023-12-05T09:47:49.245Z,8.65
2023-12-05T09:51:10.522Z,9.37
2023-12-05T09:54:54.731Z,9.40
2023-12-05T09:58:12.372Z,8.80
2023-12-05T10:01:20.888Z,9.50
2023-12-05T10:04:51.908Z,8.65
2023-12-05T10:13:37.958Z,9.48
2023-12-05T10:21:25.423Z,10.98
2023-12-05T10:25:24.287Z,9.60
2023-12-05T10:38:16.231Z,9.98
2023-12-05T10:41:55.624Z,9.00
2023-12-05T10:45:07.146Z,9.02
2023-12-05T10:52:10.197Z,9.55
2023-12-05T10:55:15.382Z,10.25
2023-12-05T10:58:20.484Z,9.80
2023-12-05T11:01:28.984Z,9.90
2023-12-05T11:22:28.541Z,9.35
2023-12-05T11:25:48.381Z,9.43
2023-12-05T11:30:21.451Z,10.23
2023-12-05T11:33:44.426Z,9.88
2023-12-05T11:37:02.319Z,9.90
2023-12-05T11:40:11.946Z,11.55
2023-12-05T11:43:17.982Z,9.10
2023-12-05T11:46:22.513Z,10.07
2023-12-05T11:49:55.732Z,9.55
2023-12-05T11:52:59.594Z,9.23
2023-12-05T11:56:07.649Z,9.38
2023-12-05T11:59:33.258Z,9.53
2023-12-05T12:02:45.761Z,8.32
2023-12-05T12:05:55.105Z,7.95
2023-12-05T12:09:00.255Z,9.32
2023-12-05T12:12:05.726Z,9.52
2023-12-05T12:15:21.220Z,9.60
2023-12-05T12:18:36.550Z,9.85
2023-12-05T12:21:48.854Z,10.18
2023-12-05T12:24:52.854Z,10.02
2023-12-05T12:27:58.133Z,12.80
2023-12-05T12:31:05.353Z,9.67
2023-12-05T12:34:26.117Z,10.00
2023-12-05T12:37:32.076Z,10.38
2023-12-05T12:41:47.618Z,9.65
2023-12-05T12:45:14.089Z,10.55
2023-12-05T12:48:18.495Z,9.77
2023-12-05T12:51:22.134Z,9.60
2023-12-05T12:54:30.670Z,9.13
2023-12-05T12:57:36.905Z,10.13
2023-12-05T13:01:08.244Z,9.75
2023-12-05T13:04:13.118Z,9.17
2023-12-05T13:07:30.350Z,9.15
2023-12-05T13:10:34.427Z,9.52
2023-12-05T13:13:40.272Z,9.00
2023-12-05T13:16:53.005Z,9.70
2023-12-05T13:20:13.992Z,9.10
2023-12-05T13:23:27.652Z,9.43
2023-12-05T13:26:36.878Z,9.57
2023-12-05T13:29:52.274Z,11.82
2023-12-05T13:33:01.921Z,10.98
2023-12-05T13:36:06.230Z,9.13
2023-12-05T13:39:13.383Z,10.23
2023-12-05T13:42:23.069Z,10.23
2023-12-05T13:45:29.581Z,9.40
2023-12-05T13:48:49.417Z,9.07
2023-12-05T13:51:52.940Z,9.67
2023-12-05T13:54:59.397Z,10.27
2023-12-05T13:58:14.382Z,10.50
2023-12-05T14:01:18.060Z,9.77
2023-12-05T14:04:24.770Z,10.27
2023-12-05T14:07:28.390Z,9.27
2023-12-05T14:10:31.664Z,9.43
2023-12-05T14:13:37.912Z,10.63
2023-12-05T14:16:49.810Z,9.93
2023-12-05T14:19:54.569Z,11.88
2023-12-05T14:22:58.580Z,10.70
2023-12-05T14:26:05.230Z,10.25
2023-12-05T14:29:13.079Z,10.35
2023-12-05T14:32:16.980Z,10.85
2023-12-05T14:40:16.301Z,10.30
2023-12-05T14:43:22.567Z,10.43
2023-12-05T14:46:26.009Z,10.95
2023-12-05T14:49:32.032Z,9.15
2023-12-05T14:52:36.250Z,10.43
2023-12-05T14:55:42.624Z,9.27
2023-12-05T14:58:47.161Z,10.77
2023-12-05T15:01:53.638Z,10.10
2023-12-05T15:05:17.255Z,12.77
2023-12-05T15:09:12.381Z,11.50
2023-12-05T15:27:14.277Z,12.10
2023-12-05T15:45:21.616Z,11.05
2023-12-05T15:53:44.715Z,13.07
2023-12-05T15:56:52.151Z,13.60
2023-12-05T16:22:29.198Z,13.35
2023-12-05T16:25:32.436Z,14.52
2023-12-05T16:28:36.049Z,13.65
2023-12-05T16:31:40.896Z,14.20
2023-12-05T16:34:47.659Z,12.73
2023-12-05T16:37:51.016Z,12.43
2023-12-05T16:40:58.019Z,13.38
2023-12-05T16:44:01.139Z,13.25
2023-12-05T16:47:04.494Z,12.88
2023-12-05T16:50:11.173Z,12.10
2023-12-05T16:53:14.340Z,12.68
2023-12-05T16:56:17.663Z,12.65
2023-12-05T16:59:31.817Z,12.73
2023-12-05T17:02:37.332Z,12.73
2023-12-05T17:05:42.863Z,12.47
2023-12-05T17:08:46.141Z,11.55
2023-12-05T17:11:49.408Z,12.48
2023-12-05T17:14:54.659Z,11.13
2023-12-05T17:17:57.866Z,10.95
2023-12-05T17:21:03.753Z,10.77
2023-12-05T17:24:08.234Z,11.00
2023-12-05T17:27:11.978Z,12.20
2023-12-05T17:30:15.432Z,11.05
2023-12-05T17:33:19.240Z,10.95
2023-12-05T17:36:25.635Z,11.03
2023-12-05T17:39:30.631Z,11.15
2023-12-05T17:42:34.259Z,11.18
2023-12-05T17:45:38.210Z,11.25
2023-12-05T17:48:41.627Z,10.82
2023-12-05T17:51:47.321Z,11.50
2023-12-05T17:54:51.040Z,11.32
2023-12-05T17:57:54.355Z,10.10
2023-12-05T18:00:58.191Z,11.05
2023-12-05T18:04:02.067Z,11.20
2023-12-05T18:07:50.694Z,11.53
2023-12-05T18:10:31.179Z,10.75
2023-12-05T18:13:34.688Z,11.23
2023-12-05T18:16:38.316Z,10.88
2023-12-05T18:19:44.941Z,11.00
2023-12-05T18:22:54.180Z,13.33
2023-12-05T18:25:57.667Z,12.52
2023-12-05T18:29:00.978Z,12.75
2023-12-05T18:32:04.454Z,13.23
2023-12-05T18:35:08.354Z,13.55
2023-12-05T18:38:14.129Z,13.10
2023-12-05T18:41:20.344Z,12.95
2023-12-05T18:44:26.351Z,12.90
2023-12-05T18:47:31.895Z,12.50
2023-12-05T18:50:35.397Z,12.13
2023-12-05T18:53:43.637Z,11.93
2023-12-05T18:56:47.754Z,12.35
2023-12-05T18:59:51.273Z,12.18
2023-12-05T19:02:56.107Z,12.43
2023-12-05T19:06:00.362Z,11.77
2023-12-05T19:09:05.570Z,13.80
2023-12-05T19:12:10.944Z,12.23
2023-12-05T19:15:15.904Z,13.27
2023-12-05T19:18:19.671Z,13.55
2023-12-05T19:21:22.960Z,13.88
2023-12-05T19:24:27.994Z,13.93
2023-12-05T19:27:32.698Z,13.30
2023-12-05T19:30:41.535Z,13.43
2023-12-05T19:33:50.580Z,13.18
2023-12-05T19:36:53.857Z,13.57
2023-12-05T19:39:58.925Z,14.00
2023-12-05T19:43:05.321Z,14.02
2023-12-05T19:46:10.750Z,14.13
2023-12-05T19:49:14.494Z,15.45
2023-12-05T19:52:18.836Z,16.63
2023-12-05T19:55:23.634Z,13.53
2023-12-05T19:58:27.156Z,14.02
2023-12-05T20:01:33.621Z,14.70
2023-12-05T20:04:36.952Z,15.07
2023-12-05T20:07:40.228Z,14.68
2023-12-05T20:10:45.871Z,14.33
2023-12-05T20:13:51.287Z,14.73
2023-12-05T20:16:54.599Z,14.68
2023-12-05T20:19:58.098Z,13.98
2023-12-05T20:23:02.082Z,14.60
2023-12-05T20:26:06.911Z,13.83
2023-12-05T20:29:10.583Z,14.85
2023-12-05T20:32:13.788Z,14.27
2023-12-05T20:35:17.116Z,14.48
2023-12-05T20:38:20.356Z,15.10
2023-12-05T20:41:25.042Z,14.57
2023-12-05T20:44:28.251Z,14.55
2023-12-05T20:47:31.516Z,15.13
2023-12-05T20:50:34.868Z,14.30
2023-12-05T20:53:38.469Z,15.55
2023-12-05T20:56:43.262Z,15.03
2023-12-05T20:59:46.481Z,14.35
2023-12-05T21:02:49.823Z,13.75
2023-12-05T21:05:53.010Z,13.77
2023-12-05T21:09:11.141Z,14.35
2023-12-05T21:12:18.132Z,13.43
2023-12-05T21:15:21.321Z,14.05
2023-12-05T21:18:28.112Z,13.95
2023-12-05T21:21:31.362Z,13.30
2023-12-05T21:24:38.317Z,13.20
2023-12-05T21:27:43.757Z,12.00
2023-12-05T21:30:47.185Z,12.52
2023-12-05T21:33:50.910Z,13.32
2023-12-05T21:36:54.223Z,13.05
2023-12-05T21:39:57.408Z,12.65
2023-12-05T21:43:04.579Z,13.20
2023-12-05T21:46:08.549Z,13.20
2023-12-05T21:49:12.281Z,14.40
2023-12-05T21:52:15.839Z,14.38
2023-12-05T21:55:19.276Z,14.45
2023-12-05T21:58:24.105Z,15.37
2023-12-05T22:01:31.028Z,14.50
2023-12-05T22:04:35.464Z,14.88
2023-12-05T22:07:52.647Z,14.95
2023-12-05T22:10:57.944Z,14.02
2023-12-05T22:14:02.605Z,15.37
2023-12-05T22:17:05.910Z,15.02
2023-12-05T22:20:10.233Z,15.60
2023-12-05T22:23:14.858Z,14.43
2023-12-05T22:26:21.136Z,14.68
2023-12-05T22:29:25.816Z,14.23
2023-12-05T22:32:32.014Z,14.45
2023-12-05T22:35:35.254Z,14.30
2023-12-05T22:38:38.784Z,13.52
2023-12-05T22:41:44.149Z,14.90
2023-12-05T22:44:49.537Z,14.53
2023-12-05T22:47:52.819Z,14.05
2023-12-05T22:50:56.511Z,15.45
2023-12-05T22:53:59.801Z,15.48
2023-12-05T22:57:06.222Z,15.75
2023-12-05T23:00:14.225Z,15.93
2023-12-05T23:03:17.891Z,16.40
2023-12-05T23:06:22.387Z,16.80
2023-12-05T23:09:26.492Z,15.85
2023-12-05T23:12:29.766Z,16.15
2023-12-05T23:15:34.595Z,17.43
2023-12-05T23:18:37.820Z,16.88
2023-12-05T23:21:41.219Z,17.58
2023-12-05T23:24:44.510Z,17.52
2023-12-05T23:27:47.710Z,16.27
2023-12-05T23:30:52.668Z,16.57
2023-12-05T23:33:56.429Z,17.80
2023-12-05T23:36:59.875Z,17.63
2023-12-05T23:40:03.293Z,17.05
2023-12-05T23:43:06.549Z,18.00
2023-12-05T23:46:11.332Z,16.87
2023-12-05T23:49:14.587Z,17.70
2023-12-05T23:52:18.054Z,17.77
2023-12-05T23:55:21.290Z,17.10
2023-12-05T23:58:38.311Z,17.23
